Terminal Aerodrome Forecast
Issued by NWS

Home | Current Version | Previous Version | Text Only | Print | Product List | Glossary On
Versions: 1 2 3 4 5 6 7 8 9 10 11 12 13 14 15 16 17 18
000
FTUS44 KTSA 310819 CCA
TAFFYV
TAF COR
KFYV 310819Z 3108/0106 00000KT 3SM BR SCT015 BKN050
      TEMPO 3108/3112 1SM BR SCT002
     FM311500 15005KT P6SM BKN028
     FM311800 19006KT P6SM BKN045 PROB30 3118/3124 5SM -TSRA
      BKN030CB
     FM010000 19004KT P6SM VCTS SCT040 BKN080CB=

USA.gov is the U.S. government's official web portal to all federal, state and local government web resources and services.